Terminal Aerodrome Forecast
Issued by NWS Jackson, MS

Home | Current Version | Previous Version | Text Only | Print | Product List | Glossary On
Versions: 1 2 3 4 5 6 7 8 9 10 11 12 13
742
FTUS44 KJAN 210528
TAFGLH
TAF
KGLH 210528Z 2106/2206 14003KT P6SM SKC
     FM211000 17003KT 5SM BR FEW015
     FM211330 20004KT P6SM FEW250
     FM211900 17005KT P6SM SCT045 SCT250=

USA.gov is the U.S. government's official web portal to all federal, state and local government web resources and services.